Pagina principale
METAR-TAF:

METAR-TAF

Aeroporti :

Aeroporto Internazionale di Gedda-Re Abd al-Aziz

Gedda, Arabia Saudita

latitudine: 21-42N, longitudine: 039-11E, altezza: 15 m

Osservazione

Il bollettino è stato emesso 59 minuti fa, alle 23:00 UTC
Vento 3 kt da nord/nord-ovest
Temperature 28°C
Umidità 74%
Pressione 1009 hPa
Visibilità 10 km o più
nessuna nube inferiore a 1500 m e nessun cumulonembo

METAR: OEJN 152300Z 33003KT CAVOK 28/23 Q1009 NOSIG

Ora: 02:59 (23:59 UTC)

Previsione

Il bollettino è stato emesso 59 minuti fa, alle 23:00 UTC
Previsione valida dal 16 alle 00 UTC al 17 alle 06 UTC
Vento 5 kt da est con raffiche fino a 15 kt
Visibilità: 7000 m
Probabilità 30% :
Temporaneamente
dal 16 alle 00 UTC al 16 alle 05 UTC
Visibilità: 4000 m
polvere diffusa, Scaccia polvere alto
Evoluzione graduale
dal 16 alle 06 UTC al 16 alle 08 UTC
Vento 12 kt da ovest

TAF: OEJN 152300Z 1600/1706 09005G15KT 7000 NSC PROB30 TEMPO 1600/1605 4000 DU BLDU BECMG 1606/1608 26012KT

Osservazioni e previsioni meteorologiche di più di 4000 aeroporti (messaggi METAR e TAF).

Le stazioni disponibili sono rappresentate dai dischi gialli e rossi sulla carta.

Puntare il mouse per vedere il nome della stazione.

Clicca sopra per visualizzare le osservazioni e previsioni meteorologiche.

Per cambiare la mappa : fare clic sui pulsanti verdi con una croce nera per ingrandire, il pulsante verde con un trattino per diminuire, o sulla freccia verde per le mappe adiacenti.


METAR-TAF: